Time;durP1;ratioP1;P1;durP2;ratioP2;P2;SDS_P1;SDS_P2;PMS_P1;PMS_P2;Temp;Humidity;BMP_temperature;BMP_pressure;BME280_temperature;BME280_humidity;BME280_pressure;Samples;Min_cycle;Max_cycle;Signal;HPM_P1;HPM_P2
2022/10/22 00:01:48;;;;;;;1.02;1.02;;;16.80;68.10;;;;;;5054952;28;20175;-73
2022/10/22 00:04:13;;;;;;;1.83;1.27;;;16.80;68.20;;;;;;5054541;28;20181;-77
2022/10/22 00:06:39;;;;;;;1.38;1.13;;;16.90;68.20;;;;;;5054015;28;20198;-75
2022/10/22 00:09:05;;;;;;;1.30;1.20;;;16.80;68.20;;;;;;5054112;28;20646;-77
2022/10/22 00:11:30;;;;;;;1.10;1.10;;;16.80;68.20;;;;;;5054856;28;20185;-76
2022/10/22 00:13:56;;;;;;;1.23;1.10;;;16.80;68.20;;;;;;5053837;28;20249;-74
2022/10/22 00:16:22;;;;;;;1.17;1.08;;;16.80;68.20;;;;;;5054543;28;20254;-75
2022/10/22 00:18:47;;;;;;;1.60;1.20;;;16.80;68.20;;;;;;5054431;28;20242;-74
2022/10/22 00:21:13;;;;;;;1.05;0.95;;;16.80;68.20;;;;;;5053559;28;20178;-76
2022/10/22 00:23:42;;;;;;;1.20;1.10;;;16.80;68.20;;;;;;5054435;28;20203;-74
2022/10/22 00:26:07;;;;;;;1.50;1.40;;;16.80;68.20;;;;;;5054132;28;20697;-75
2022/10/22 00:28:33;;;;;;;1.33;1.20;;;16.80;68.20;;;;;;5053699;28;20274;-75
2022/10/22 00:30:59;;;;;;;1.02;1.00;;;16.80;68.20;;;;;;5054081;28;20167;-74
2022/10/22 00:33:25;;;;;;;1.27;1.17;;;16.80;68.20;;;;;;5053211;28;20673;-76
2022/10/22 00:35:50;;;;;;;1.35;1.10;;;16.80;68.20;;;;;;5053384;28;20183;-75
2022/10/22 00:38:16;;;;;;;1.17;1.17;;;16.80;68.20;;;;;;5054028;28;20224;-76
2022/10/22 00:40:41;;;;;;;1.33;1.10;;;16.80;68.20;;;;;;5054145;28;20250;-75
2022/10/22 00:43:16;;;;;;;1.65;1.10;;;16.80;68.20;;;;;;5053180;28;20186;-74
2022/10/22 00:45:41;;;;;;;1.05;0.98;;;16.70;68.10;;;;;;5054077;28;20178;-74
2022/10/22 00:48:18;;;;;;;1.33;1.23;;;16.80;68.20;;;;;;5053730;28;20232;-73
2022/10/22 00:50:57;;;;;;;3.13;1.52;;;16.70;68.20;;;;;;5052031;28;20167;-74
2022/10/22 00:53:25;;;;;;;0.90;0.90;;;16.70;68.20;;;;;;5052925;28;20250;-74
2022/10/22 00:55:51;;;;;;;2.30;1.05;;;16.70;68.20;;;;;;5053263;28;20179;-73
2022/10/22 00:58:20;;;;;;;1.05;1.00;;;16.70;68.20;;;;;;5052089;28;20677;-74
2022/10/22 01:00:45;;;;;;;1.48;1.02;;;16.70;68.40;;;;;;5052624;28;20206;-73
2022/10/22 01:03:11;;;;;;;2.35;1.13;;;16.70;68.20;;;;;;5051382;28;20171;-76
2022/10/22 01:05:42;;;;;;;1.67;1.58;;;16.70;68.20;;;;;;5052251;28;20167;-75
2022/10/22 01:08:11;;;;;;;1.42;1.15;;;16.70;68.20;;;;;;5051980;28;20676;-77
2022/10/22 01:11:10;;;;;;;1.05;1.00;;;16.70;68.20;;;;;;5051734;28;20264;-75
2022/10/22 01:14:11;;;;;;;1.25;0.95;;;16.70;68.20;;;;;;5044506;28;20573;-75
2022/10/22 01:16:59;;;;;;;1.33;1.08;;;16.70;68.20;;;;;;5040842;28;20187;-75
2022/10/22 01:19:49;;;;;;;1.60;1.10;;;16.70;68.20;;;;;;5048613;28;20218;-75
2022/10/22 01:22:22;;;;;;;1.27;1.17;;;16.70;68.30;;;;;;5053283;28;20175;-75
2022/10/22 01:24:51;;;;;;;1.10;1.00;;;16.70;68.20;;;;;;5051292;28;20592;-74
2022/10/22 01:27:25;;;;;;;0.93;0.80;;;16.70;68.20;;;;;;5051947;28;20198;-75
2022/10/22 01:29:54;;;;;;;1.10;1.00;;;16.70;69.00;;;;;;5053244;28;20181;-74
2022/10/22 01:32:23;;;;;;;1.10;1.10;;;16.70;68.20;;;;;;5050835;28;20236;-76
2022/10/22 01:34:54;;;;;;;1.30;0.90;;;16.70;68.30;;;;;;5052146;28;20274;-76
2022/10/22 01:37:20;;;;;;;1.40;1.15;;;16.70;68.20;;;;;;5051860;28;20213;-76
2022/10/22 01:39:46;;;;;;;0.80;0.80;;;16.70;68.20;;;;;;5051290;28;20179;-74
2022/10/22 01:42:12;;;;;;;1.15;1.13;;;16.70;68.30;;;;;;5051675;28;20167;-76
2022/10/22 01:44:37;;;;;;;1.13;1.13;;;16.70;68.20;;;;;;5052885;28;20193;-73
2022/10/22 01:47:33;;;;;;;1.38;1.27;;;16.60;68.10;;;;;;5052188;28;20254;-74
2022/10/22 01:50:22;;;;;;;0.85;0.85;;;16.70;68.30;;;;;;5052592;28;20591;-76
2022/10/22 01:52:56;;;;;;;1.05;1.00;;;16.60;68.20;;;;;;5052228;28;20185;-74
2022/10/22 01:55:31;;;;;;;1.00;0.95;;;16.60;68.20;;;;;;5052780;28;20178;-74
2022/10/22 01:58:18;;;;;;;0.90;0.90;;;16.60;68.20;;;;;;5051631;28;20206;-76
2022/10/22 02:00:47;;;;;;;0.98;0.98;;;16.60;68.20;;;;;;5051152;28;20178;-74
2022/10/22 02:03:20;;;;;;;0.88;0.88;;;16.60;68.10;;;;;;5051394;28;20189;-76
2022/10/22 02:05:52;;;;;;;1.00;0.90;;;16.60;68.20;;;;;;5051532;28;20183;-75
2022/10/22 02:08:26;;;;;;;1.38;1.27;;;16.60;68.20;;;;;;5052581;28;20183;-75
2022/10/22 02:10:51;;;;;;;1.25;1.15;;;16.60;68.20;;;;;;5051799;28;20174;-75
2022/10/22 02:13:26;;;;;;;1.55;0.93;;;16.60;68.20;;;;;;5050275;28;20731;-76
2022/10/22 02:15:51;;;;;;;1.13;1.02;;;16.60;68.20;;;;;;5051684;28;20174;-75
2022/10/22 02:18:21;;;;;;;1.20;0.98;;;16.60;68.20;;;;;;5052237;28;20459;-76
2022/10/22 02:20:46;;;;;;;1.02;0.90;;;16.60;68.20;;;;;;5050965;28;20175;-76
2022/10/22 02:23:12;;;;;;;1.27;1.20;;;16.60;68.10;;;;;;5051097;28;20711;-75
2022/10/22 02:25:39;;;;;;;1.58;1.00;;;16.60;68.20;;;;;;5052794;28;20626;-75
2022/10/22 02:28:13;;;;;;;0.98;0.90;;;16.60;68.20;;;;;;5050323;28;20179;-75
2022/10/22 02:30:38;;;;;;;0.85;0.85;;;16.60;68.20;;;;;;5051558;28;20201;-74
2022/10/22 02:33:25;;;;;;;1.10;1.10;;;16.60;68.10;;;;;;5050957;28;20179;-76
2022/10/22 02:35:50;;;;;;;1.05;1.05;;;16.60;68.20;;;;;;5051907;28;20183;-76
2022/10/22 02:38:16;;;;;;;1.00;0.90;;;16.60;68.20;;;;;;5050943;28;20563;-75
2022/10/22 02:40:41;;;;;;;1.85;1.30;;;16.60;68.20;;;;;;5051320;28;20254;-73
2022/10/22 02:43:07;;;;;;;1.00;1.00;;;16.60;68.20;;;;;;5050191;28;20273;-76
2022/10/22 02:45:33;;;;;;;1.00;1.00;;;16.60;68.10;;;;;;5052599;28;20249;-73
2022/10/22 02:47:59;;;;;;;1.15;1.00;;;16.60;68.20;;;;;;5050966;28;20179;-74
2022/10/22 02:50:24;;;;;;;1.10;1.10;;;16.60;68.20;;;;;;5051799;28;20182;-74
2022/10/22 02:52:50;;;;;;;1.42;0.90;;;16.60;68.20;;;;;;5052513;28;20175;-73
2022/10/22 02:55:15;;;;;;;0.98;0.98;;;16.60;68.20;;;;;;5051555;28;20171;-77
2022/10/22 02:57:41;;;;;;;1.40;1.02;;;16.60;68.20;;;;;;5054601;28;20261;-73
2022/10/22 03:00:07;;;;;;;1.75;1.23;;;16.60;68.20;;;;;;5055842;28;20505;-74
2022/10/22 03:02:32;;;;;;;1.13;1.08;;;16.60;68.20;;;;;;5055272;28;20650;-75
2022/10/22 03:04:58;;;;;;;1.15;0.93;;;16.50;68.10;;;;;;5055597;28;20181;-75
2022/10/22 03:07:24;;;;;;;1.95;1.20;;;16.60;68.20;;;;;;5055956;28;20260;-76
2022/10/22 03:09:49;;;;;;;1.88;1.60;;;16.50;68.10;;;;;;5055124;28;20298;-74
2022/10/22 03:12:15;;;;;;;1.02;1.02;;;16.50;68.10;;;;;;5055318;28;20681;-75
2022/10/22 03:14:40;;;;;;;1.13;1.10;;;16.50;68.10;;;;;;5055951;28;20530;-75
2022/10/22 03:17:06;;;;;;;1.23;1.13;;;16.50;68.10;;;;;;5054823;28;20656;-75
2022/10/22 03:19:31;;;;;;;1.17;1.08;;;16.50;68.10;;;;;;5055543;28;20638;-74
2022/10/22 03:22:06;;;;;;;0.90;0.90;;;16.50;68.10;;;;;;5055301;28;20179;-75
2022/10/22 03:24:34;;;;;;;0.90;0.90;;;16.50;68.10;;;;;;5053790;28;20186;-73
2022/10/22 03:27:00;;;;;;;0.82;0.82;;;16.60;68.20;;;;;;5054099;28;20233;-75
2022/10/22 03:29:26;;;;;;;1.55;0.90;;;16.50;68.10;;;;;;5054482;28;20172;-73
2022/10/22 03:31:52;;;;;;;1.13;1.13;;;16.50;68.10;;;;;;5054871;28;20221;-75
2022/10/22 03:34:17;;;;;;;1.00;1.00;;;16.50;68.10;;;;;;5055177;28;20183;-76
2022/10/22 03:36:43;;;;;;;1.10;1.10;;;16.50;68.10;;;;;;5055556;28;20369;-74
2022/10/22 03:39:08;;;;;;;0.80;0.80;;;16.50;68.10;;;;;;5053029;28;20369;-75
2022/10/22 03:41:34;;;;;;;1.35;1.00;;;16.50;68.10;;;;;;5054260;28;20195;-73
2022/10/22 03:44:00;;;;;;;1.60;0.93;;;16.50;68.10;;;;;;5053929;28;20233;-74
2022/10/22 03:46:26;;;;;;;0.90;0.90;;;16.50;68.20;;;;;;5053236;28;20186;-73
2022/10/22 03:48:51;;;;;;;1.33;1.17;;;16.50;68.10;;;;;;5055230;28;20179;-72
2022/10/22 03:51:17;;;;;;;0.95;0.95;;;16.50;68.10;;;;;;5054814;28;20179;-74
2022/10/22 03:53:42;;;;;;;1.00;0.90;;;16.50;68.20;;;;;;5054357;28;20182;-73
2022/10/22 03:56:09;;;;;;;0.88;0.88;;;16.50;68.20;;;;;;5054647;28;20178;-75
2022/10/22 03:58:35;;;;;;;2.15;1.17;;;16.50;68.10;;;;;;5054382;28;20210;-74
2022/10/22 04:01:05;;;;;;;0.75;0.75;;;16.50;68.10;;;;;;5054760;28;20171;-73
2022/10/22 04:03:31;;;;;;;1.00;1.00;;;16.50;68.10;;;;;;5054964;28;20269;-74
2022/10/22 04:06:08;;;;;;;0.90;0.90;;;16.50;68.10;;;;;;5054079;28;20266;-75
2022/10/22 04:08:33;;;;;;;1.50;1.08;;;16.50;68.10;;;;;;5054527;28;20187;-75
2022/10/22 04:10:59;;;;;;;0.80;0.80;;;16.50;68.10;;;;;;5054611;28;20253;-76
2022/10/22 04:13:25;;;;;;;1.13;1.02;;;16.50;68.20;;;;;;5053762;28;20226;-74
2022/10/22 04:15:50;;;;;;;1.55;1.08;;;16.50;68.10;;;;;;5054524;28;20201;-75
2022/10/22 04:18:20;;;;;;;0.85;0.85;;;16.50;68.20;;;;;;5054258;28;20393;-75
2022/10/22 04:20:45;;;;;;;1.05;0.95;;;16.50;68.20;;;;;;5053713;28;20207;-74
2022/10/22 04:23:11;;;;;;;1.38;0.90;;;16.50;68.20;;;;;;5054015;28;20206;-75
2022/10/22 04:25:37;;;;;;;0.80;0.80;;;16.50;69.10;;;;;;5054414;28;20183;-73
2022/10/22 04:28:06;;;;;;;1.00;1.00;;;16.50;68.10;;;;;;5053578;28;20175;-75
2022/10/22 04:30:31;;;;;;;1.05;0.90;;;16.50;68.20;;;;;;5054247;28;20599;-73
2022/10/22 04:32:57;;;;;;;0.93;0.93;;;16.50;68.20;;;;;;5053771;28;20175;-75
2022/10/22 04:35:22;;;;;;;0.90;0.90;;;16.50;68.20;;;;;;5053407;28;20198;-75
2022/10/22 04:37:48;;;;;;;1.98;1.08;;;16.40;68.10;;;;;;5053892;28;20213;-72
2022/10/22 04:40:13;;;;;;;1.30;1.20;;;16.40;68.10;;;;;;5053840;28;20174;-75
2022/10/22 04:42:39;;;;;;;1.08;0.98;;;16.50;68.10;;;;;;5053420;28;20233;-72
2022/10/22 04:45:04;;;;;;;0.80;0.80;;;16.40;68.20;;;;;;5053716;28;20163;-75
2022/10/22 04:47:30;;;;;;;1.05;1.05;;;16.40;68.10;;;;;;5054004;28;20226;-73
2022/10/22 04:49:55;;;;;;;1.13;1.05;;;16.40;68.20;;;;;;5053304;28;20175;-72
2022/10/22 04:52:21;;;;;;;0.90;0.90;;;16.40;68.10;;;;;;5053578;28;20175;-73
2022/10/22 04:54:46;;;;;;;1.40;1.00;;;16.40;68.10;;;;;;5053371;28;20674;-73
2022/10/22 04:57:13;;;;;;;1.30;1.20;;;16.40;68.90;;;;;;5053432;28;20194;-75
2022/10/22 04:59:39;;;;;;;1.00;1.00;;;16.40;68.20;;;;;;5053858;28;20206;-73
2022/10/22 05:02:04;;;;;;;2.38;1.13;;;16.40;68.20;;;;;;5053015;28;20622;-73
2022/10/22 05:04:30;;;;;;;0.95;0.88;;;16.40;68.10;;;;;;5053780;28;20186;-75
2022/10/22 05:06:55;;;;;;;0.75;0.75;;;16.40;68.10;;;;;;5053569;28;20164;-75
2022/10/22 05:09:21;;;;;;;1.17;1.08;;;16.40;68.20;;;;;;5052776;28;20178;-73
2022/10/22 05:11:48;;;;;;;0.90;0.90;;;16.40;68.10;;;;;;5053503;28;20182;-74
2022/10/22 05:14:16;;;;;;;1.00;1.00;;;16.40;68.20;;;;;;5053119;28;20262;-74
2022/10/22 05:16:41;;;;;;;1.00;0.95;;;16.40;68.20;;;;;;5052940;28;20179;-75
2022/10/22 05:19:07;;;;;;;1.10;1.00;;;16.40;68.10;;;;;;5052780;28;20215;-75
2022/10/22 05:21:32;;;;;;;1.30;1.20;;;16.40;68.10;;;;;;5053289;28;20201;-74
2022/10/22 05:24:01;;;;;;;1.20;1.10;;;16.40;68.10;;;;;;5052547;28;20179;-74
2022/10/22 05:26:27;;;;;;;1.30;1.20;;;16.40;68.10;;;;;;5053519;28;20178;-73
2022/10/22 05:28:52;;;;;;;1.30;1.20;;;16.40;68.20;;;;;;5053275;28;20652;-74
2022/10/22 05:31:18;;;;;;;0.85;0.85;;;16.40;68.20;;;;;;5052361;28;20179;-75
2022/10/22 05:33:44;;;;;;;1.20;1.10;;;16.40;68.20;;;;;;5053180;28;20175;-76
2022/10/22 05:36:14;;;;;;;0.80;0.80;;;16.40;68.20;;;;;;5052800;28;20578;-76
2022/10/22 05:38:40;;;;;;;1.38;1.27;;;16.40;68.20;;;;;;5051472;28;20222;-75
2022/10/22 05:41:10;;;;;;;1.02;1.00;;;16.40;68.20;;;;;;5052968;28;20262;-75
2022/10/22 05:43:36;;;;;;;1.95;1.05;;;16.40;68.20;;;;;;5053270;28;20175;-73
2022/10/22 05:46:03;;;;;;;1.38;0.73;;;16.40;68.20;;;;;;5051977;28;20221;-74
2022/10/22 05:48:28;;;;;;;0.82;0.82;;;16.40;68.20;;;;;;5052892;28;20218;-74
2022/10/22 05:50:54;;;;;;;1.30;1.00;;;16.40;68.20;;;;;;5052758;28;20218;-74
2022/10/22 05:53:19;;;;;;;1.30;0.90;;;16.40;69.00;;;;;;5052426;28;20660;-74
2022/10/22 05:55:45;;;;;;;1.08;0.98;;;16.40;68.20;;;;;;5052822;28;20262;-73
2022/10/22 05:58:11;;;;;;;0.75;0.75;;;16.30;68.10;;;;;;5051992;28;20729;-75
2022/10/22 06:00:36;;;;;;;1.42;1.00;;;16.30;68.10;;;;;;5053020;28;20614;-73
2022/10/22 06:03:02;;;;;;;1.27;1.17;;;16.30;68.20;;;;;;5052318;28;20190;-74
2022/10/22 06:05:28;;;;;;;1.05;1.00;;;16.30;68.10;;;;;;5052270;28;20175;-75
2022/10/22 06:07:53;;;;;;;0.90;0.90;;;16.40;68.20;;;;;;5052951;28;20175;-74
2022/10/22 06:10:19;;;;;;;0.93;0.93;;;16.40;68.10;;;;;;5051388;28;20167;-74
2022/10/22 06:12:48;;;;;;;1.00;0.93;;;16.50;68.20;;;;;;5050819;28;20229;-75
2022/10/22 06:15:15;;;;;;;0.98;0.98;;;16.50;68.20;;;;;;5052314;28;20572;-74
2022/10/22 06:17:40;;;;;;;0.98;0.98;;;16.50;68.10;;;;;;5052531;28;20209;-74
2022/10/22 06:20:07;;;;;;;0.77;0.77;;;16.60;68.20;;;;;;5050388;28;20262;-75
2022/10/22 06:22:32;;;;;;;0.90;0.90;;;16.60;68.00;;;;;;5052668;28;20167;-74
2022/10/22 06:24:58;;;;;;;1.00;1.00;;;16.60;67.90;;;;;;5052329;28;20190;-76
2022/10/22 06:27:23;;;;;;;1.05;0.90;;;16.60;67.70;;;;;;5051816;28;20634;-73
2022/10/22 06:29:49;;;;;;;1.60;1.05;;;16.60;67.70;;;;;;5052616;28;20167;-74
2022/10/22 06:32:14;;;;;;;1.08;1.08;;;16.60;67.60;;;;;;5053858;28;20536;-75
2022/10/22 06:34:40;;;;;;;1.00;1.00;;;16.60;67.60;;;;;;5055746;28;20567;-75
2022/10/22 06:37:05;;;;;;;1.02;1.00;;;16.60;67.60;;;;;;5056152;28;20615;-75
2022/10/22 06:39:31;;;;;;;0.93;0.93;;;16.70;67.70;;;;;;5056287;28;20211;-73
2022/10/22 06:41:56;;;;;;;0.88;0.88;;;16.80;67.70;;;;;;5055589;28;20196;-75
2022/10/22 06:44:22;;;;;;;0.85;0.85;;;16.90;67.50;;;;;;5056360;28;20179;-73
2022/10/22 06:46:51;;;;;;;1.67;0.85;;;17.00;67.30;;;;;;5056207;28;20179;-72
2022/10/22 06:49:17;;;;;;;0.90;0.90;;;17.00;67.10;;;;;;5055279;28;20273;-73
2022/10/22 06:51:42;;;;;;;0.82;0.80;;;17.00;67.00;;;;;;5056362;28;20266;-72
2022/10/22 06:54:08;;;;;;;0.95;0.90;;;17.10;67.00;;;;;;5055979;28;20273;-75
2022/10/22 06:56:33;;;;;;;0.75;0.75;;;17.20;67.00;;;;;;5055673;28;20272;-72
2022/10/22 06:58:59;;;;;;;1.00;1.00;;;17.30;66.80;;;;;;5055703;28;20211;-74
2022/10/22 07:01:27;;;;;;;1.08;0.98;;;17.40;66.60;;;;;;5055274;28;20756;-73
2022/10/22 07:03:52;;;;;;;1.08;1.00;;;17.60;66.20;;;;;;5056212;28;20176;-73
2022/10/22 07:06:18;;;;;;;1.25;0.80;;;17.80;65.50;;;;;;5055829;28;20190;-75
2022/10/22 07:08:44;;;;;;;0.98;0.88;;;18.10;64.80;;;;;;5055317;28;20179;-75
2022/10/22 07:11:14;;;;;;;2.20;1.20;;;18.30;64.10;;;;;;5055462;28;20530;-75
2022/10/22 07:13:40;;;;;;;1.52;1.10;;;18.40;63.60;;;;;;5055663;28;20709;-74
2022/10/22 07:16:06;;;;;;;2.85;1.15;;;18.60;63.20;;;;;;5054636;28;20171;-76
2022/10/22 07:18:31;;;;;;;2.20;0.88;;;18.70;62.90;;;;;;5055786;28;20211;-74
2022/10/22 07:20:57;;;;;;;1.25;1.02;;;18.80;62.50;;;;;;5055473;28;20167;-74
2022/10/22 07:23:22;;;;;;;3.38;1.10;;;18.80;62.30;;;;;;5054980;28;20240;-74
2022/10/22 07:25:48;;;;;;;4.82;1.10;;;18.80;62.30;;;;;;5055648;28;20250;-75
2022/10/22 07:28:13;;;;;;;1.45;1.13;;;18.80;62.40;;;;;;5055241;28;20639;-75
2022/10/22 07:30:39;;;;;;;3.05;1.60;;;18.70;62.80;;;;;;5054627;28;20175;-72
2022/10/22 07:33:05;;;;;;;3.28;1.10;;;18.60;63.20;;;;;;5055076;28;20633;-70
2022/10/22 07:35:30;;;;;;;2.92;1.65;;;18.60;63.40;;;;;;5055333;28;20198;-73
2022/10/22 07:37:56;;;;;;;5.63;1.83;;;18.50;63.50;;;;;;5054627;28;20206;-71
2022/10/22 07:40:21;;;;;;;4.97;2.10;;;18.30;63.90;;;;;;5055092;28;20163;-72
2022/10/22 07:42:47;;;;;;;2.60;1.30;;;18.30;64.30;;;;;;5054572;28;20278;-73
2022/10/22 07:45:12;;;;;;;3.60;1.92;;;18.20;64.90;;;;;;5054117;28;20266;-72
2022/10/22 07:47:38;;;;;;;3.60;2.00;;;18.10;65.40;;;;;;5055414;28;20191;-73
2022/10/22 07:50:05;;;;;;;4.05;1.73;;;18.00;65.60;;;;;;5055019;28;20179;-73
2022/10/22 07:52:30;;;;;;;3.47;1.95;;;18.00;66.00;;;;;;5054453;28;20180;-72
2022/10/22 07:54:56;;;;;;;3.03;1.95;;;17.90;66.30;;;;;;5055095;28;20178;-73
2022/10/22 07:57:22;;;;;;;4.97;1.98;;;17.80;66.40;;;;;;5055007;28;20167;-72
2022/10/22 07:59:47;;;;;;;2.85;2.05;;;17.80;66.60;;;;;;5054120;28;20203;-72
2022/10/22 08:02:12;;;;;;;3.95;1.73;;;17.70;66.90;;;;;;5054688;28;20210;-72
2022/10/22 08:04:38;;;;;;;5.13;2.17;;;17.70;66.90;;;;;;5054162;28;20257;-73
2022/10/22 08:07:04;;;;;;;4.53;2.15;;;17.60;67.20;;;;;;5054595;28;20205;-73
2022/10/22 08:09:30;;;;;;;2.40;1.73;;;17.60;67.70;;;;;;5054701;28;20179;-72
2022/10/22 08:11:55;;;;;;;5.53;2.40;;;17.70;67.40;;;;;;5054014;28;20197;-70
2022/10/22 08:14:21;;;;;;;3.90;2.05;;;17.60;67.50;;;;;;5054329;28;20187;-70
2022/10/22 08:16:46;;;;;;;4.80;1.92;;;17.60;67.80;;;;;;5054844;28;20301;-70
2022/10/22 08:19:12;;;;;;;5.00;1.75;;;17.70;67.90;;;;;;5053693;28;20590;-72
2022/10/22 08:21:38;;;;;;;3.80;2.08;;;17.80;67.60;;;;;;5054378;28;20183;-72
2022/10/22 08:24:05;;;;;;;5.45;1.80;;;17.90;67.30;;;;;;5054161;28;20182;-70
2022/10/22 08:26:30;;;;;;;4.47;1.80;;;17.90;67.20;;;;;;5053639;28;20184;-71
2022/10/22 08:28:56;;;;;;;5.43;2.47;;;17.90;67.20;;;;;;5054290;28;20171;-70
2022/10/22 08:31:21;;;;;;;6.32;2.50;;;17.90;67.40;;;;;;5054239;28;20254;-71
2022/10/22 08:33:47;;;;;;;5.60;2.10;;;17.80;67.70;;;;;;5053454;28;20171;-71
2022/10/22 08:36:12;;;;;;;4.45;1.73;;;17.90;67.50;;;;;;5053717;28;20170;-70
2022/10/22 08:38:38;;;;;;;3.97;1.85;;;17.90;67.70;;;;;;5054162;28;20276;-71
2022/10/22 08:41:22;;;;;;;5.32;2.03;;;18.00;67.70;;;;;;5053238;28;20171;-71
2022/10/22 08:44:26;;;;;;;5.05;1.80;;;18.00;67.50;;;;;;5053200;28;20198;-73
2022/10/22 08:46:55;;;;;;;3.80;1.80;;;18.00;67.50;;;;;;5031119;28;20633;-73
2022/10/22 08:49:25;;;;;;;6.88;2.33;;;18.10;67.30;;;;;;5044678;28;20183;-73
2022/10/22 08:51:50;;;;;;;5.35;1.90;;;18.10;67.40;;;;;;5052623;28;20691;-73
2022/10/22 08:54:49;;;;;;;3.95;2.20;;;18.10;67.20;;;;;;5050932;28;20183;-74
2022/10/22 08:57:47;;;;;;;4.45;2.10;;;18.10;67.30;;;;;;5053450;28;20232;-73
2022/10/22 09:00:29;;;;;;;5.45;2.53;;;18.00;67.30;;;;;;5052045;28;20191;-73
2022/10/22 09:03:32;;;;;;;4.53;2.10;;;18.00;67.70;;;;;;5052052;28;20175;-74
2022/10/22 09:06:26;;;;;;;5.22;1.90;;;18.00;68.00;;;;;;5053377;28;20175;-72
2022/10/22 09:08:52;;;;;;;6.47;2.28;;;17.90;68.10;;;;;;5052935;28;20187;-73
2022/10/22 09:11:29;;;;;;;4.25;1.67;;;17.90;68.30;;;;;;5053202;28;20167;-73
2022/10/22 09:13:54;;;;;;;5.53;2.40;;;17.80;68.30;;;;;;5053371;28;20591;-73
2022/10/22 09:16:35;;;;;;;4.25;2.20;;;17.80;68.60;;;;;;5052214;28;20183;-74
2022/10/22 09:19:18;;;;;;;4.40;2.45;;;17.80;68.70;;;;;;5052810;28;20203;-73
2022/10/22 09:21:53;;;;;;;7.75;2.33;;;17.80;68.80;;;;;;5053365;28;20183;-73
2022/10/22 09:24:36;;;;;;;4.07;1.88;;;17.70;68.80;;;;;;5051566;28;20221;-73
2022/10/22 09:27:11;;;;;;;4.10;2.10;;;17.70;68.90;;;;;;5051934;28;20189;-73
2022/10/22 09:29:36;;;;;;;3.35;1.80;;;17.70;69.10;;;;;;5051512;28;20190;-73
2022/10/22 09:32:02;;;;;;;5.22;2.15;;;17.70;69.10;;;;;;5052772;28;20704;-73
2022/10/22 09:34:28;;;;;;;7.30;2.78;;;17.60;69.10;;;;;;5052164;28;20227;-72
2022/10/22 09:37:04;;;;;;;4.53;2.33;;;17.60;69.20;;;;;;5058049;28;20168;-74
2022/10/22 09:39:39;;;;;;;4.95;2.35;;;17.60;69.40;;;;;;5053884;28;20213;-75
2022/10/22 09:42:09;;;;;;;5.38;2.20;;;17.60;69.40;;;;;;5052820;28;20249;-75
2022/10/22 09:44:35;;;;;;;4.72;2.05;;;17.60;69.40;;;;;;5051327;28;20175;-74
2022/10/22 09:47:11;;;;;;;6.57;1.90;;;17.60;69.50;;;;;;5052785;28;20301;-73
2022/10/22 09:49:37;;;;;;;3.65;1.80;;;17.60;69.70;;;;;;5051935;28;20597;-69
2022/10/22 09:52:04;;;;;;;5.20;2.38;;;17.60;69.80;;;;;;5051890;28;20166;-69
2022/10/22 09:54:37;;;;;;;4.55;1.98;;;17.60;70.00;;;;;;5051615;28;20190;-74
2022/10/22 09:57:09;;;;;;;5.72;2.35;;;17.70;70.00;;;;;;5052499;28;20189;-75
2022/10/22 09:59:37;;;;;;;6.30;2.25;;;17.60;69.90;;;;;;5052756;28;20748;-73
2022/10/22 10:02:08;;;;;;;5.03;2.40;;;17.70;70.10;;;;;;5052655;28;20183;-74
2022/10/22 10:04:35;;;;;;;7.88;2.25;;;17.70;70.10;;;;;;5050935;28;20187;-75
2022/10/22 10:07:00;;;;;;;7.75;1.90;;;17.70;70.10;;;;;;5052212;28;20197;-74
2022/10/22 10:09:26;;;;;;;6.05;2.20;;;17.60;71.00;;;;;;5052586;28;20689;-74
2022/10/22 10:12:36;;;;;;;6.70;2.15;;;17.70;70.20;;;;;;5050836;28;20704;-74
2022/10/22 10:15:23;;;;;;;9.73;2.13;;;17.70;70.40;;;;;;5052397;28;20274;-75
2022/10/22 10:18:04;;;;;;;4.65;1.70;;;17.70;70.50;;;;;;5051632;28;20214;-74
2022/10/22 10:20:40;;;;;;;5.53;2.40;;;17.70;70.50;;;;;;5051926;28;20254;-74
2022/10/22 10:23:30;;;;;;;6.38;2.10;;;17.70;70.50;;;;;;5051243;28;20170;-74
2022/10/22 10:26:11;;;;;;;5.93;1.95;;;17.70;70.50;;;;;;5050695;28;20626;-74
2022/10/22 10:28:58;;;;;;;6.63;2.28;;;17.70;70.50;;;;;;5051878;28;20175;-74
2022/10/22 10:31:55;;;;;;;5.00;2.22;;;17.70;70.50;;;;;;5052355;28;20533;-73
2022/10/22 10:34:43;;;;;;;5.18;2.17;;;17.70;70.50;;;;;;5051762;28;20641;-74
2022/10/22 10:37:13;;;;;;;5.40;1.80;;;17.70;70.60;;;;;;5050864;28;20186;-73
2022/10/22 10:39:43;;;;;;;5.28;2.38;;;17.60;71.50;;;;;;5050238;28;20210;-73
2022/10/22 10:42:25;;;;;;;5.40;2.25;;;17.60;70.80;;;;;;5050925;28;20191;-74
2022/10/22 10:45:19;;;;;;;4.22;1.92;;;17.60;70.80;;;;;;5051173;28;20642;-75
2022/10/22 10:48:04;;;;;;;6.15;1.98;;;17.60;70.90;;;;;;5053225;28;20171;-74
2022/10/22 10:50:39;;;;;;;5.78;2.33;;;17.60;70.90;;;;;;5050955;28;20179;-74
2022/10/22 10:53:35;;;;;;;5.13;2.60;;;17.60;70.90;;;;;;5050936;28;20510;-75
2022/10/22 10:56:31;;;;;;;5.97;2.20;;;17.60;71.10;;;;;;5051021;28;20210;-74
2022/10/22 10:59:16;;;;;;;10.63;4.32;;;17.60;71.00;;;;;;5050864;28;20231;-74
2022/10/22 11:02:13;;;;;;;15.60;8.45;;;17.60;71.00;;;;;;5050362;28;20183;-74
2022/10/22 11:05:06;;;;;;;17.13;8.13;;;17.60;71.10;;;;;;5051384;28;20595;-75
2022/10/22 11:08:12;;;;;;;13.68;6.85;;;17.60;70.90;;;;;;5035233;28;20187;-74
2022/10/22 11:10:43;;;;;;;15.50;6.72;;;17.70;70.70;;;;;;5037046;28;20194;-74
2022/10/22 11:13:19;;;;;;;11.70;6.68;;;17.70;70.60;;;;;;5051636;28;20767;-73
2022/10/22 11:15:51;;;;;;;14.23;7.38;;;17.70;70.50;;;;;;5050250;28;20167;-74
2022/10/22 11:18:24;;;;;;;12.05;6.75;;;17.80;70.50;;;;;;5052269;28;20219;-74
2022/10/22 11:20:56;;;;;;;15.75;7.18;;;17.80;70.50;;;;;;5054455;28;20579;-74
2022/10/22 11:23:26;;;;;;;14.63;7.00;;;17.80;70.50;;;;;;5052925;28;20657;-73
2022/10/22 11:25:52;;;;;;;12.18;7.28;;;17.90;70.20;;;;;;5054467;28;20176;-73
2022/10/22 11:28:27;;;;;;;16.15;7.40;;;18.00;70.10;;;;;;5055248;28;20181;-68
2022/10/22 11:31:00;;;;;;;13.05;5.93;;;18.10;70.00;;;;;;5053769;28;20170;-71
2022/10/22 11:33:27;;;;;;;12.52;5.88;;;18.10;69.80;;;;;;5054333;28;20194;-70
2022/10/22 11:35:53;;;;;;;10.38;6.28;;;18.10;69.80;;;;;;5054666;28;20171;-74
2022/10/22 11:38:24;;;;;;;16.90;6.78;;;18.10;69.90;;;;;;5053627;28;20203;-73
2022/10/22 11:41:01;;;;;;;11.93;5.93;;;18.10;70.00;;;;;;5054340;28;20175;-73
2022/10/22 11:43:28;;;;;;;10.68;5.45;;;18.10;70.20;;;;;;5054426;28;20585;-74
2022/10/22 11:46:01;;;;;;;8.63;5.43;;;18.00;70.10;;;;;;5055258;28;20183;-74
2022/10/22 11:48:28;;;;;;;11.60;6.00;;;18.00;70.20;;;;;;5054088;28;20711;-74
2022/10/22 11:51:01;;;;;;;8.23;4.05;;;18.00;70.30;;;;;;5053127;28;20551;-75
2022/10/22 11:53:37;;;;;;;10.52;5.00;;;18.10;70.30;;;;;;5055104;28;20660;-73
2022/10/22 11:56:06;;;;;;;7.07;4.57;;;18.00;70.10;;;;;;5054672;28;20651;-74
2022/10/22 11:58:46;;;;;;;9.65;4.32;;;18.00;70.30;;;;;;5054243;28;20203;-74
2022/10/22 12:01:12;;;;;;;12.85;4.47;;;18.00;70.30;;;;;;5054650;28;20206;-68
2022/10/22 12:03:42;;;;;;;9.50;4.43;;;18.00;70.30;;;;;;5054883;28;20277;-74
2022/10/22 12:06:11;;;;;;;7.70;3.72;;;18.10;70.20;;;;;;5053624;28;20589;-73
2022/10/22 12:08:50;;;;;;;9.52;4.45;;;18.10;70.30;;;;;;5054849;28;20544;-74
2022/10/22 12:11:35;;;;;;;8.82;4.32;;;18.00;70.20;;;;;;5053784;28;20186;-74
2022/10/22 12:14:01;;;;;;;7.82;4.43;;;18.00;70.30;;;;;;5059127;28;20280;-68
2022/10/22 12:16:31;;;;;;;11.52;4.63;;;18.00;70.30;;;;;;5053446;28;20198;-69
2022/10/22 12:19:37;;;;;;;8.65;3.85;;;18.00;70.50;;;;;;5052109;28;20688;-69
2022/10/22 12:22:08;;;;;;;11.02;3.90;;;17.90;70.50;;;;;;5042097;28;20206;-68
2022/10/22 12:24:39;;;;;;;8.75;4.00;;;18.00;70.60;;;;;;5054260;28;20236;-68
2022/10/22 12:27:18;;;;;;;8.80;3.78;;;18.00;70.40;;;;;;5052201;28;20175;-67
2022/10/22 12:29:43;;;;;;;8.25;4.05;;;18.00;70.30;;;;;;5054329;28;20266;-68
2022/10/22 12:32:10;;;;;;;7.60;3.30;;;18.00;70.30;;;;;;5053400;28;20289;-67
2022/10/22 12:34:35;;;;;;;6.55;3.45;;;18.00;70.30;;;;;;5053016;28;20179;-68
2022/10/22 12:37:03;;;;;;;9.18;3.65;;;18.00;70.00;;;;;;5052488;28;20262;-68
2022/10/22 12:39:28;;;;;;;7.53;2.80;;;18.10;69.90;;;;;;5052019;28;20242;-68
2022/10/22 12:41:54;;;;;;;5.00;2.72;;;18.10;69.90;;;;;;5054074;28;20625;-70
2022/10/22 12:44:20;;;;;;;8.02;3.03;;;18.10;70.10;;;;;;5053729;28;20236;-70
2022/10/22 12:46:47;;;;;;;11.90;3.78;;;18.10;70.10;;;;;;5053615;28;20171;-70
2022/10/22 12:49:30;;;;;;;8.10;3.25;;;18.10;70.10;;;;;;5052262;28;20207;-70
2022/10/22 12:51:56;;;;;;;7.85;2.72;;;18.10;70.20;;;;;;5053134;28;20183;-70
2022/10/22 12:54:27;;;;;;;6.45;2.75;;;18.10;70.20;;;;;;5051731;28;20645;-70
2022/10/22 12:56:53;;;;;;;4.90;2.80;;;18.00;70.20;;;;;;5053768;28;20179;-70
2022/10/22 12:59:24;;;;;;;6.22;2.60;;;18.00;70.20;;;;;;5052461;28;20214;-70
2022/10/22 13:01:49;;;;;;;7.55;2.50;;;18.00;70.20;;;;;;5051422;28;20541;-70